createdAt,value
2018-06-02T00:01:19.779Z,101344.34
2018-06-02T00:03:48.657Z,101344.52
2018-06-02T00:06:17.566Z,101339.72
2018-06-02T00:08:46.484Z,101341.42
2018-06-02T00:11:15.383Z,101331.66
2018-06-02T00:13:44.125Z,101337.48
2018-06-02T00:16:12.990Z,101339.72
2018-06-02T00:18:41.861Z,101331.67
2018-06-02T00:21:10.760Z,101334.75
2018-06-02T00:23:39.589Z,101339.52
2018-06-02T00:26:08.466Z,101336.95
2018-06-02T00:28:37.339Z,101340.03
2018-06-02T00:31:06.178Z,101343.66
2018-06-02T00:33:35.105Z,101339.89
2018-06-02T00:36:03.947Z,101346.55
2018-06-02T00:38:34.091Z,101345.89
2018-06-02T00:41:02.928Z,101344.14
2018-06-02T00:43:31.858Z,101340.89
2018-06-02T00:46:00.696Z,101347.77
2018-06-02T00:48:29.571Z,101345.20
2018-06-02T00:50:58.477Z,101344.69
2018-06-02T00:53:27.331Z,101341.94
2018-06-02T00:55:56.184Z,101339.88
2018-06-02T00:58:25.158Z,101338.35
2018-06-02T01:00:54.059Z,101335.44
2018-06-02T01:03:22.943Z,101331.30
2018-06-02T01:05:51.836Z,101329.93
2018-06-02T01:08:20.713Z,101328.05
2018-06-02T01:10:49.566Z,101321.72
2018-06-02T01:13:18.472Z,101325.48
2018-06-02T01:15:47.304Z,101322.58
2018-06-02T01:18:16.204Z,101321.03
2018-06-02T01:20:45.068Z,101326.33
2018-06-02T01:23:13.971Z,101323.28
2018-06-02T01:25:42.860Z,101324.30
2018-06-02T01:28:11.780Z,101331.64
2018-06-02T01:30:40.638Z,101328.05
2018-06-02T01:33:09.561Z,101324.28
2018-06-02T01:35:38.442Z,101326.51
2018-06-02T01:38:07.304Z,101324.63
2018-06-02T01:40:36.203Z,101324.63
2018-06-02T01:43:05.068Z,101327.20
2018-06-02T01:45:33.911Z,101315.47
2018-06-02T01:48:02.775Z,101325.13
2018-06-02T01:50:31.639Z,101322.38
2018-06-02T01:53:00.527Z,101318.80
2018-06-02T01:55:29.404Z,101314.00
2018-06-02T01:57:58.252Z,101307.67
2018-06-02T02:00:27.118Z,101310.75
2018-06-02T02:02:55.991Z,101303.73
2018-06-02T02:05:24.875Z,101296.23
2018-06-02T02:07:53.704Z,101296.34
2018-06-02T02:10:22.578Z,101285.39
2018-06-02T02:12:51.449Z,101291.56
2018-06-02T02:15:20.288Z,101292.94
2018-06-02T02:17:49.147Z,101290.55
2018-06-02T02:20:18.017Z,101291.39
2018-06-02T02:22:46.868Z,101289.84
2018-06-02T02:25:15.750Z,101288.30
2018-06-02T02:27:44.595Z,101285.56
2018-06-02T02:30:16.448Z,101284.19
2018-06-02T02:32:45.293Z,101285.05
2018-06-02T02:35:14.171Z,101289.67
2018-06-02T02:37:43.015Z,101292.42
2018-06-02T02:40:11.899Z,101289.88
2018-06-02T02:42:40.756Z,101292.24
2018-06-02T02:45:09.616Z,101295.36
2018-06-02T02:47:38.538Z,101286.25
2018-06-02T02:50:07.387Z,101288.01
2018-06-02T02:52:36.265Z,101283.97
2018-06-02T02:55:05.169Z,101279.34
2018-06-02T02:57:34.026Z,101273.51
2018-06-02T03:00:02.872Z,101283.28
2018-06-02T03:02:31.720Z,101288.11
2018-06-02T03:05:00.565Z,101288.80
2018-06-02T03:07:29.435Z,101295.30
2018-06-02T03:09:58.339Z,101288.31
2018-06-02T03:12:27.234Z,101285.23
2018-06-02T03:14:56.106Z,101288.82
2018-06-02T03:17:24.976Z,101286.73
2018-06-02T03:19:53.848Z,101288.11
2018-06-02T03:22:22.689Z,101284.52
2018-06-02T03:24:51.549Z,101287.94
2018-06-02T03:27:20.381Z,101287.08
2018-06-02T03:29:49.234Z,101287.25
2018-06-02T03:32:18.076Z,101286.25
2018-06-02T03:34:46.931Z,101284.99
2018-06-02T03:37:15.828Z,101290.84
2018-06-02T03:39:44.711Z,101288.63
2018-06-02T03:42:13.536Z,101295.64
2018-06-02T03:44:42.408Z,101289.14
2018-06-02T03:47:11.229Z,101296.84
2018-06-02T03:49:40.075Z,101301.33
2018-06-02T03:52:08.974Z,101302.19
2018-06-02T03:54:37.828Z,101303.58
2018-06-02T03:57:06.686Z,101307.34
2018-06-02T03:59:35.736Z,101304.27
2018-06-02T04:02:04.608Z,101301.49
2018-06-02T04:04:33.507Z,101304.60
2018-06-02T04:07:02.393Z,101313.51
2018-06-02T04:09:31.253Z,101310.06
2018-06-02T04:12:00.157Z,101311.73
2018-06-02T04:14:29.020Z,101313.15
2018-06-02T04:16:57.886Z,101305.61
2018-06-02T04:19:26.763Z,101310.06
2018-06-02T04:21:55.618Z,101307.67
2018-06-02T04:24:24.467Z,101306.64
2018-06-02T04:26:53.337Z,101308.49
2018-06-02T04:29:22.178Z,101305.27
2018-06-02T04:31:51.019Z,101310.73
2018-06-02T04:34:19.865Z,101308.84
2018-06-02T04:36:48.702Z,101315.37
2018-06-02T04:39:17.581Z,101314.05
2018-06-02T04:41:46.426Z,101312.14
2018-06-02T04:44:15.288Z,101312.97
2018-06-02T04:46:44.113Z,101315.20
2018-06-02T04:49:12.967Z,101320.88
2018-06-02T04:51:41.799Z,101318.48
2018-06-02T04:54:10.664Z,101318.13
2018-06-02T04:56:39.506Z,101321.39
2018-06-02T04:59:08.396Z,101326.02
2018-06-02T05:01:37.242Z,101328.92
2018-06-02T05:04:06.104Z,101324.38
2018-06-02T05:06:34.972Z,101330.77
2018-06-02T05:09:04.322Z,101325.31
2018-06-02T05:11:33.175Z,101330.97
2018-06-02T05:14:02.047Z,101325.67
2018-06-02T05:16:30.970Z,101326.54
2018-06-02T05:18:59.828Z,101327.12
2018-06-02T05:21:28.648Z,101324.28
2018-06-02T05:23:57.544Z,101328.22
2018-06-02T05:26:26.395Z,101339.91
2018-06-02T05:28:55.247Z,101337.84
2018-06-02T05:31:24.102Z,101332.44
2018-06-02T05:33:52.983Z,101337.80
2018-06-02T05:36:21.878Z,101336.95
2018-06-02T05:38:50.747Z,101332.69
2018-06-02T05:41:19.608Z,101339.19
2018-06-02T05:43:48.444Z,101342.42
2018-06-02T05:46:17.329Z,101342.93
2018-06-02T05:48:46.189Z,101352.02
2018-06-02T05:51:15.016Z,101349.80
2018-06-02T05:53:43.911Z,101350.13
2018-06-02T05:56:12.769Z,101354.75
2018-06-02T05:58:41.615Z,101355.78
2018-06-02T06:01:10.451Z,101357.27
2018-06-02T06:03:39.375Z,101360.03
2018-06-02T06:06:08.171Z,101358.14
2018-06-02T06:08:37.033Z,101354.55
2018-06-02T06:11:05.911Z,101357.11
2018-06-02T06:13:34.736Z,101365.37
2018-06-02T06:16:03.613Z,101365.08
2018-06-02T06:18:32.499Z,101365.15
2018-06-02T06:21:01.501Z,101365.69
2018-06-02T06:23:30.379Z,101366.72
2018-06-02T06:25:59.245Z,101368.77
2018-06-02T06:28:28.089Z,101375.92
2018-06-02T06:30:56.982Z,101374.42
2018-06-02T06:33:25.816Z,101374.80
2018-06-02T06:35:54.718Z,101374.82
2018-06-02T06:38:23.569Z,101373.09
2018-06-02T06:40:52.722Z,101382.02
2018-06-02T06:43:21.551Z,101377.72
2018-06-02T06:45:50.411Z,101374.20
2018-06-02T06:48:19.284Z,101372.22
2018-06-02T06:50:48.107Z,101371.86
2018-06-02T06:53:16.963Z,101369.95
2018-06-02T06:55:45.820Z,101368.26
2018-06-02T06:58:14.840Z,101367.98
2018-06-02T07:00:43.720Z,101372.48
2018-06-02T07:03:12.606Z,101383.83
2018-06-02T07:05:41.436Z,101378.72
2018-06-02T07:08:10.306Z,101380.94
2018-06-02T07:10:39.178Z,101375.48
2018-06-02T07:13:08.010Z,101384.69
2018-06-02T07:15:36.934Z,101384.00
2018-06-02T07:19:06.024Z,101380.92
2018-06-02T07:21:36.195Z,101394.80
2018-06-02T07:24:05.091Z,101391.03
2018-06-02T07:26:33.956Z,101392.58
2018-06-02T07:29:02.795Z,101394.47
2018-06-02T07:31:31.738Z,101392.75
2018-06-02T07:34:00.597Z,101391.89
2018-06-02T07:36:29.446Z,101392.20
2018-06-02T07:38:58.318Z,101397.34
2018-06-02T07:41:27.176Z,101392.61
2018-06-02T07:43:56.011Z,101386.00
2018-06-02T07:46:24.853Z,101390.12
2018-06-02T07:48:53.678Z,101383.13
2018-06-02T07:51:22.552Z,101391.27
2018-06-02T07:53:51.383Z,101384.94
2018-06-02T07:56:20.264Z,101392.17
2018-06-02T07:58:49.103Z,101391.53
2018-06-02T08:01:17.935Z,101389.48
2018-06-02T08:03:46.800Z,101394.96
2018-06-02T08:06:15.639Z,101391.92
2018-06-02T08:08:44.537Z,101396.42
2018-06-02T08:11:13.331Z,101396.63
2018-06-02T08:13:42.170Z,101397.49
2018-06-02T08:16:11.051Z,101395.56
2018-06-02T08:18:39.886Z,101403.84
2018-06-02T08:21:08.744Z,101398.69
2018-06-02T08:23:37.627Z,101396.59
2018-06-02T08:26:06.471Z,101394.02
2018-06-02T08:28:35.312Z,101407.09
2018-06-02T08:31:04.175Z,101409.52
2018-06-02T08:33:33.054Z,101408.67
2018-06-02T08:36:01.899Z,101406.48
2018-06-02T08:38:30.719Z,101408.88
2018-06-02T08:40:59.587Z,101414.70
2018-06-02T08:43:28.458Z,101420.22
2018-06-02T08:45:57.466Z,101416.27
2018-06-02T08:48:26.377Z,101419.89
2018-06-02T08:50:55.203Z,101421.41
2018-06-02T08:53:24.066Z,101426.20
2018-06-02T08:55:52.924Z,101426.71
2018-06-02T08:58:21.764Z,101427.90
2018-06-02T09:00:50.616Z,101422.02
2018-06-02T09:03:19.465Z,101430.46
2018-06-02T09:05:48.331Z,101420.19
2018-06-02T09:08:17.175Z,101421.57
2018-06-02T09:10:46.033Z,101422.08
2018-06-02T09:13:14.878Z,101425.83
2018-06-02T09:15:43.705Z,101423.41
2018-06-02T09:18:12.567Z,101418.10
2018-06-02T09:20:41.408Z,101421.19
2018-06-02T09:23:10.330Z,101430.27
2018-06-02T09:25:39.151Z,101427.05
2018-06-02T09:28:09.415Z,101434.71
2018-06-02T09:30:38.301Z,101434.67
2018-06-02T09:33:07.192Z,101428.50
2018-06-02T09:35:36.083Z,101426.99
2018-06-02T09:38:05.120Z,101430.19
2018-06-02T09:40:34.045Z,101425.72
2018-06-02T09:43:02.949Z,101430.66
2018-06-02T09:45:31.798Z,101426.02
2018-06-02T09:48:00.717Z,101427.48
2018-06-02T09:50:29.684Z,101430.38
2018-06-02T09:52:58.547Z,101424.50
2018-06-02T09:55:27.400Z,101423.86
2018-06-02T09:57:56.304Z,101429.83
2018-06-02T10:00:25.697Z,101431.82
2018-06-02T10:02:54.426Z,101434.34
2018-06-02T10:05:23.284Z,101433.48
2018-06-02T10:07:52.139Z,101435.55
2018-06-02T10:10:21.032Z,101432.29
2018-06-02T10:12:49.882Z,101420.84
2018-06-02T10:15:18.718Z,101429.00
2018-06-02T10:17:47.567Z,101425.08
2018-06-02T10:20:16.415Z,101429.36
2018-06-02T10:22:45.277Z,101433.98
2018-06-02T10:25:14.122Z,101439.41
2018-06-02T10:27:42.984Z,101441.73
2018-06-02T10:30:11.830Z,101443.67
2018-06-02T10:32:40.833Z,101442.34
2018-06-02T10:35:09.708Z,101448.77
2018-06-02T10:37:38.544Z,101441.87
2018-06-02T10:40:07.406Z,101441.69
2018-06-02T10:42:36.276Z,101432.69
2018-06-02T10:45:05.137Z,101438.69
2018-06-02T10:47:33.981Z,101440.78
2018-06-02T10:50:03.213Z,101437.25
2018-06-02T10:52:32.177Z,101444.66
2018-06-02T10:55:01.270Z,101445.94
2018-06-02T10:57:30.320Z,101447.31
2018-06-02T10:59:59.307Z,101443.66
2018-06-02T11:02:28.647Z,101441.47
2018-06-02T11:04:57.639Z,101447.60
2018-06-02T11:07:26.929Z,101448.03
2018-06-02T11:09:56.019Z,101444.31
2018-06-02T11:12:25.241Z,101446.29
2018-06-02T11:14:54.533Z,101453.08
2018-06-02T11:17:27.882Z,101453.62
2018-06-02T11:19:55.114Z,101445.52
2018-06-02T11:22:24.207Z,101444.12
2018-06-02T11:24:53.311Z,101444.30
2018-06-02T11:27:22.494Z,101439.93
2018-06-02T11:29:52.371Z,101437.51
2018-06-02T11:32:21.475Z,101432.36
2018-06-02T11:34:50.534Z,101435.19
2018-06-02T11:37:19.614Z,101434.91
2018-06-02T11:39:48.760Z,101437.47
2018-06-02T11:42:17.907Z,101440.33
2018-06-02T11:44:47.018Z,101452.16
2018-06-02T11:47:16.098Z,101454.30
2018-06-02T11:49:45.193Z,101449.78
2018-06-02T11:52:14.394Z,101445.06
2018-06-02T11:54:43.938Z,101449.95
2018-06-02T11:57:13.353Z,101451.11
2018-06-02T11:59:46.352Z,101455.27
2018-06-02T12:02:15.322Z,101448.86
2018-06-02T12:04:44.463Z,101448.73
2018-06-02T12:07:13.484Z,101449.36
2018-06-02T12:09:44.584Z,101449.97
2018-06-02T12:12:14.253Z,101453.50
2018-06-02T12:14:43.710Z,101450.05
2018-06-02T12:17:12.764Z,101452.55
2018-06-02T12:19:44.162Z,101449.20
2018-06-02T12:22:13.393Z,101446.63
2018-06-02T12:24:42.744Z,101443.39
2018-06-02T12:27:11.918Z,101439.55
2018-06-02T12:29:40.953Z,101438.06
2018-06-02T12:32:10.167Z,101440.93
2018-06-02T12:34:39.321Z,101441.23
2018-06-02T12:37:08.320Z,101444.16
2018-06-02T12:39:37.411Z,101449.89
2018-06-02T12:42:06.483Z,101442.55
2018-06-02T12:44:35.574Z,101445.79
2018-06-02T12:47:04.699Z,101442.67
2018-06-02T12:49:34.000Z,101445.06
2018-06-02T12:52:03.482Z,101446.03
2018-06-02T12:54:32.761Z,101440.64
2018-06-02T12:57:01.697Z,101443.18
2018-06-02T12:59:30.742Z,101436.38
2018-06-02T13:01:59.759Z,101439.76
2018-06-02T13:04:28.811Z,101440.59
2018-06-02T13:06:57.838Z,101436.46
2018-06-02T13:09:26.848Z,101440.05
2018-06-02T13:11:55.830Z,101441.14
2018-06-02T13:14:24.950Z,101432.62
2018-06-02T13:16:54.075Z,101446.38
2018-06-02T13:19:23.345Z,101437.34
2018-06-02T13:21:53.299Z,101444.88
2018-06-02T13:24:22.352Z,101442.34
2018-06-02T13:26:54.201Z,101436.19
2018-06-02T13:29:23.280Z,101440.95
2018-06-02T13:31:52.351Z,101443.83
2018-06-02T13:34:21.432Z,101444.78
2018-06-02T13:36:50.505Z,101444.05
2018-06-02T13:39:19.464Z,101437.69
2018-06-02T13:41:48.668Z,101444.49
2018-06-02T13:44:17.697Z,101438.27
2018-06-02T13:46:46.746Z,101443.61
2018-06-02T13:49:16.147Z,101445.39
2018-06-02T13:51:45.032Z,101439.78
2018-06-02T13:54:14.120Z,101439.74
2018-06-02T13:56:45.614Z,101428.69
2018-06-02T13:59:14.746Z,101435.38
2018-06-02T14:01:45.668Z,101433.87
2018-06-02T14:04:14.631Z,101433.45
2018-06-02T14:06:43.810Z,101432.09
2018-06-02T14:09:12.962Z,101434.92
2018-06-02T14:11:41.966Z,101434.00
2018-06-02T14:14:11.027Z,101426.53
2018-06-02T14:16:40.119Z,101425.44
2018-06-02T14:19:09.304Z,101426.31
2018-06-02T14:21:41.165Z,101425.91
2018-06-02T14:24:10.396Z,101421.23
2018-06-02T14:26:39.454Z,101419.53
2018-06-02T14:29:08.632Z,101419.67
2018-06-02T14:31:37.655Z,101423.28
2018-06-02T14:34:11.509Z,101421.89
2018-06-02T14:36:40.816Z,101420.59
2018-06-02T14:39:09.855Z,101427.14
2018-06-02T14:41:39.069Z,101421.63
2018-06-02T14:44:08.370Z,101423.61
2018-06-02T14:46:37.391Z,101422.22
2018-06-02T14:49:06.523Z,101419.11
2018-06-02T14:51:35.698Z,101416.87
2018-06-02T14:54:04.700Z,101413.33
2018-06-02T14:56:33.615Z,101415.91
2018-06-02T14:59:02.684Z,101415.85
2018-06-02T15:01:32.092Z,101408.24
2018-06-02T15:04:01.193Z,101411.67
2018-06-02T15:06:32.416Z,101412.91
2018-06-02T15:09:03.340Z,101414.09
2018-06-02T15:11:34.952Z,101408.58
2018-06-02T15:14:06.176Z,101410.20
2018-06-02T15:16:35.202Z,101410.27
2018-06-02T15:19:04.401Z,101413.53
2018-06-02T15:21:33.508Z,101409.55
2018-06-02T15:24:05.422Z,101406.37
2018-06-02T15:26:34.274Z,101411.08
2018-06-02T15:29:03.416Z,101409.77
2018-06-02T15:31:34.801Z,101409.06
2018-06-02T15:34:03.921Z,101408.33
2018-06-02T15:36:33.004Z,101416.18
2018-06-02T15:39:02.112Z,101415.21
2018-06-02T15:41:31.301Z,101412.70
2018-06-02T15:44:00.414Z,101404.92
2018-06-02T15:46:29.464Z,101407.53
2018-06-02T15:49:01.189Z,101408.25
2018-06-02T15:51:30.287Z,101403.59
2018-06-02T15:53:59.220Z,101401.69
2018-06-02T15:56:28.346Z,101409.69
2018-06-02T15:58:57.567Z,101411.91
2018-06-02T16:01:26.671Z,101402.92
2018-06-02T16:03:55.658Z,101400.84
2018-06-02T16:06:24.954Z,101406.41
2018-06-02T16:08:54.008Z,101415.67
2018-06-02T16:11:23.234Z,101406.45
2018-06-02T16:13:52.440Z,101406.08
2018-06-02T16:16:21.581Z,101400.34
2018-06-02T16:18:50.615Z,101398.06
2018-06-02T16:21:19.739Z,101399.31
2018-06-02T16:23:48.786Z,101401.54
2018-06-02T16:26:17.735Z,101400.30
2018-06-02T16:28:46.908Z,101398.73
2018-06-02T16:31:16.039Z,101396.08
2018-06-02T16:33:48.104Z,101393.84
2018-06-02T16:36:16.983Z,101394.80
2018-06-02T16:38:45.918Z,101394.71
2018-06-02T16:41:15.009Z,101389.14
2018-06-02T16:43:46.982Z,101390.58
2018-06-02T16:46:16.083Z,101388.37
2018-06-02T16:48:45.373Z,101385.86
2018-06-02T16:51:14.582Z,101384.02
2018-06-02T16:53:43.677Z,101380.48
2018-06-02T16:56:12.789Z,101381.67
2018-06-02T16:58:41.765Z,101380.88
2018-06-02T17:01:10.862Z,101381.67
2018-06-02T17:03:40.077Z,101385.14
2018-06-02T17:06:09.248Z,101380.20
2018-06-02T17:08:38.292Z,101380.81
2018-06-02T17:11:07.537Z,101376.29
2018-06-02T17:13:36.763Z,101378.58
2018-06-02T17:16:08.586Z,101386.23
2018-06-02T17:18:37.559Z,101385.84
2018-06-02T17:21:06.648Z,101386.32
2018-06-02T17:23:38.462Z,101388.41
2018-06-02T17:26:07.359Z,101395.24
2018-06-02T17:28:36.437Z,101389.02
2018-06-02T17:31:05.569Z,101392.34
2018-06-02T17:33:34.552Z,101390.77
2018-06-02T17:36:03.640Z,101396.54
2018-06-02T17:38:32.816Z,101391.23
2018-06-02T17:41:01.892Z,101391.70
2018-06-02T17:43:31.438Z,101392.03
2018-06-02T17:46:03.244Z,101392.75
2018-06-02T17:48:32.379Z,101387.05
2018-06-02T17:51:01.523Z,101380.53
2018-06-02T17:53:30.473Z,101388.60
2018-06-02T17:55:59.573Z,101383.56
2018-06-02T17:58:28.911Z,101385.45
2018-06-02T18:00:57.980Z,101384.44
2018-06-02T18:03:27.395Z,101381.02
2018-06-02T18:05:56.534Z,101382.06
2018-06-02T18:08:27.793Z,101388.99
2018-06-02T18:10:57.299Z,101386.16
2018-06-02T18:13:26.295Z,101387.69
2018-06-02T18:15:57.871Z,101385.39
2018-06-02T18:18:27.021Z,101379.87
2018-06-02T18:20:56.063Z,101381.63
2018-06-02T18:23:25.425Z,101385.31
2018-06-02T18:25:54.531Z,101386.41
2018-06-02T18:28:23.783Z,101388.16
2018-06-02T18:30:52.945Z,101385.20
2018-06-02T18:33:22.032Z,101387.25
2018-06-02T18:35:50.909Z,101382.20
2018-06-02T18:38:19.910Z,101384.43
2018-06-02T18:40:51.066Z,101384.62
2018-06-02T18:43:20.125Z,101386.33
2018-06-02T18:45:49.294Z,101389.31
2018-06-02T18:48:18.693Z,101383.17
2018-06-02T18:50:47.771Z,101383.35
2018-06-02T18:53:16.894Z,101382.34
2018-06-02T18:55:45.944Z,101384.61
2018-06-02T18:58:15.037Z,101388.16
2018-06-02T19:00:46.606Z,101391.50
2018-06-02T19:03:15.805Z,101384.69
2018-06-02T19:05:45.448Z,101382.86
2018-06-02T19:08:14.744Z,101386.98
2018-06-02T19:10:44.109Z,101389.22
2018-06-02T19:13:15.860Z,101394.72
2018-06-02T19:15:44.897Z,101404.42
2018-06-02T19:18:14.019Z,101399.59
2018-06-02T19:20:43.825Z,101397.23
2018-06-02T19:23:17.672Z,101407.91
2018-06-02T19:25:47.305Z,101405.83
2018-06-02T19:28:16.547Z,101403.02
2018-06-02T19:30:45.642Z,101406.87
2018-06-02T19:33:18.219Z,101411.61
2018-06-02T19:35:47.206Z,101415.59
2018-06-02T19:38:16.029Z,101418.86
2018-06-02T19:40:44.905Z,101413.78
2018-06-02T19:43:13.810Z,101420.69
2018-06-02T19:45:42.658Z,101426.24
2018-06-02T19:48:11.547Z,101426.42
2018-06-02T19:50:40.353Z,101433.46
2018-06-02T19:53:09.192Z,101425.57
2018-06-02T19:55:38.061Z,101430.23
2018-06-02T19:58:06.936Z,101429.08
2018-06-02T20:00:35.821Z,101432.21
2018-06-02T20:03:20.328Z,101434.63
2018-06-02T20:05:49.170Z,101439.68
2018-06-02T20:08:17.998Z,101432.45
2018-06-02T20:10:46.837Z,101431.41
2018-06-02T20:13:15.680Z,101435.73
2018-06-02T20:15:44.521Z,101438.33
2018-06-02T20:18:13.330Z,101433.39
2018-06-02T20:20:42.196Z,101432.18
2018-06-02T20:23:11.014Z,101435.30
2018-06-02T20:25:39.876Z,101438.73
2018-06-02T20:28:08.726Z,101441.53
2018-06-02T20:30:37.550Z,101438.52
2018-06-02T20:33:06.402Z,101444.88
2018-06-02T20:35:35.253Z,101453.37
2018-06-02T20:38:04.123Z,101449.63
2018-06-02T20:40:32.979Z,101452.94
2018-06-02T20:43:01.806Z,101454.66
2018-06-02T20:45:30.660Z,101454.74
2018-06-02T20:47:59.527Z,101459.63
2018-06-02T20:50:28.371Z,101458.61
2018-06-02T20:52:57.245Z,101458.09
2018-06-02T20:55:26.135Z,101461.34
2018-06-02T20:57:54.981Z,101465.77
2018-06-02T21:00:23.836Z,101467.15
2018-06-02T21:02:52.695Z,101469.59
2018-06-02T21:05:21.605Z,101469.72
2018-06-02T21:07:50.401Z,101477.11
2018-06-02T21:10:19.257Z,101469.59
2018-06-02T21:12:48.070Z,101480.77
2018-06-02T21:15:16.909Z,101482.13
2018-06-02T21:17:45.739Z,101476.99
2018-06-02T21:20:14.574Z,101482.31
2018-06-02T21:22:43.439Z,101480.46
2018-06-02T21:25:12.246Z,101482.17
2018-06-02T21:27:41.083Z,101481.63
2018-06-02T21:30:09.946Z,101488.50
2018-06-02T21:32:38.776Z,101488.70
2018-06-02T21:35:07.618Z,101495.91
2018-06-02T21:37:36.458Z,101487.33
2018-06-02T21:40:05.296Z,101487.13
2018-06-02T21:42:34.132Z,101486.09
2018-06-02T21:45:02.991Z,101486.26
2018-06-02T21:47:31.869Z,101484.37
2018-06-02T21:50:00.686Z,101491.06
2018-06-02T21:52:29.525Z,101489.17
2018-06-02T21:54:58.363Z,101490.21
2018-06-02T21:57:27.222Z,101496.91
2018-06-02T21:59:56.067Z,101491.59
2018-06-02T22:02:24.933Z,101493.98
2018-06-02T22:04:53.789Z,101500.72
2018-06-02T22:07:22.621Z,101494.89
2018-06-02T22:09:51.481Z,101496.59
2018-06-02T22:12:20.327Z,101500.20
2018-06-02T22:14:49.191Z,101500.34
2018-06-02T22:17:18.035Z,101500.86
2018-06-02T22:19:46.878Z,101499.52
2018-06-02T22:22:15.684Z,101500.86
2018-06-02T22:24:44.531Z,101506.73
2018-06-02T22:27:13.377Z,101505.66
2018-06-02T22:29:42.249Z,101504.67
2018-06-02T22:32:11.104Z,101500.38
2018-06-02T22:34:39.939Z,101498.02
2018-06-02T22:37:08.799Z,101503.98
2018-06-02T22:39:37.718Z,101496.78
2018-06-02T22:42:06.571Z,101505.02
2018-06-02T22:44:35.554Z,101498.49
2018-06-02T22:47:04.391Z,101501.59
2018-06-02T22:49:33.211Z,101496.44
2018-06-02T22:52:02.070Z,101497.47
2018-06-02T22:54:30.921Z,101498.70
2018-06-02T22:56:59.810Z,101495.27
2018-06-02T22:59:28.785Z,101496.30
2018-06-02T23:01:57.934Z,101496.47
2018-06-02T23:04:26.795Z,101499.22
2018-06-02T23:06:55.678Z,101501.11
2018-06-02T23:09:24.528Z,101503.86
2018-06-02T23:11:53.372Z,101503.69
2018-06-02T23:14:22.247Z,101500.25
2018-06-02T23:16:51.057Z,101492.36
2018-06-02T23:19:19.894Z,101492.53
2018-06-02T23:21:48.715Z,101494.76
2018-06-02T23:24:17.553Z,101502.66
2018-06-02T23:26:46.362Z,101495.28
2018-06-02T23:29:15.296Z,101498.92
2018-06-02T23:31:44.086Z,101496.17
2018-06-02T23:34:12.925Z,101497.23
2018-06-02T23:36:41.782Z,101501.01
2018-06-02T23:39:10.624Z,101507.56
2018-06-02T23:41:39.451Z,101514.25
2018-06-02T23:44:08.285Z,101511.75
2018-06-02T23:46:37.130Z,101514.77
2018-06-02T23:49:05.983Z,101512.53
2018-06-02T23:51:34.823Z,101519.08
2018-06-02T23:54:03.661Z,101522.16
2018-06-02T23:56:32.498Z,101516.87
2018-06-02T23:59:01.333Z,101519.55
